Time;durP1;ratioP1;P1;durP2;ratioP2;P2;SDS_P1;SDS_P2;PMS_P1;PMS_P2;Temp;Humidity;BMP_temperature;BMP_pressure;BME280_temperature;BME280_humidity;BME280_pressure;Samples;Min_cycle;Max_cycle;Signal;HPM_P1;HPM_P2
2023/09/28 00:00:58;;;;;;;0.00;0.00;;;20.10;99.90;;;;;;5035126;28;20022;-75
2023/09/28 00:03:24;;;;;;;0.10;0.10;;;20.10;99.90;;;;;;5034806;28;20046;-75
2023/09/28 00:05:54;;;;;;;0.10;0.10;;;20.00;99.90;;;;;;5034727;28;20032;-75
2023/09/28 00:08:19;;;;;;;0.35;0.35;;;19.90;99.90;;;;;;5034694;28;20030;-77
2023/09/28 00:10:45;;;;;;;5.57;2.55;;;20.00;99.90;;;;;;5034794;28;20071;-75
2023/09/28 00:13:11;;;;;;;0.00;0.00;;;19.90;99.90;;;;;;5034924;28;20517;-75
2023/09/28 00:15:37;;;;;;;0.00;0.00;;;19.90;99.90;;;;;;5034730;28;20103;-77
2023/09/28 00:18:04;;;;;;;0.43;0.43;;;19.90;99.90;;;;;;5034801;28;20037;-76
2023/09/28 00:20:30;;;;;;;1.75;1.10;;;19.90;99.90;;;;;;5034140;28;20021;-75
2023/09/28 00:22:56;;;;;;;0.38;0.38;;;20.00;99.90;;;;;;5027246;28;20037;-76
2023/09/28 00:25:23;;;;;;;0.10;0.10;;;20.10;99.90;;;;;;5029411;28;20032;-75
2023/09/28 00:27:50;;;;;;;4.47;3.03;;;20.10;99.90;;;;;;5034614;28;20033;-75
2023/09/28 00:30:21;;;;;;;0.00;0.00;;;19.80;99.90;;;;;;5034319;28;20026;-75
2023/09/28 00:32:50;;;;;;;0.00;0.00;;;19.60;99.90;;;;;;5034537;28;20069;-77
2023/09/28 00:35:16;;;;;;;8.32;5.75;;;19.70;99.90;;;;;;5032952;28;20075;-76
2023/09/28 00:37:42;;;;;;;0.20;0.20;;;19.60;99.90;;;;;;5034016;28;20504;-76
2023/09/28 00:40:31;;;;;;;0.00;0.00;;;19.70;99.90;;;;;;5033075;28;20033;-77
2023/09/28 00:42:58;;;;;;;1.00;1.00;;;19.80;99.90;;;;;;5033093;28;20030;-76
2023/09/28 00:45:25;;;;;;;0.00;0.00;;;19.70;99.90;;;;;;5029073;28;20018;-77
2023/09/28 00:47:54;;;;;;;1.10;0.75;;;19.80;99.90;;;;;;5029613;28;20040;-77
2023/09/28 00:50:21;;;;;;;0.00;0.00;;;20.00;99.90;;;;;;5032727;28;20022;-77
2023/09/28 00:52:57;;;;;;;0.60;0.52;;;20.00;99.90;;;;;;5023619;28;20032;-76
2023/09/28 00:55:27;;;;;;;0.00;0.00;;;19.80;99.90;;;;;;5030705;28;20033;-76
2023/09/28 00:58:00;;;;;;;0.00;0.00;;;19.80;99.90;;;;;;5033703;28;20026;-77
2023/09/28 01:00:27;;;;;;;0.63;0.63;;;19.70;99.90;;;;;;5033788;28;20434;-77
2023/09/28 01:02:55;;;;;;;0.08;0.08;;;19.70;99.90;;;;;;5032097;28;20104;-76
2023/09/28 01:05:38;;;;;;;0.00;0.00;;;19.70;99.90;;;;;;5032570;28;20393;-75
2023/09/28 01:08:12;;;;;;;0.00;0.00;;;19.80;99.90;;;;;;5032309;28;20037;-76
2023/09/28 01:10:40;;;;;;;0.25;0.25;;;19.60;99.90;;;;;;5033661;28;20061;-76
2023/09/28 01:13:15;;;;;;;0.13;0.13;;;19.60;99.90;;;;;;5033561;28;20017;-76
2023/09/28 01:15:43;;;;;;;0.00;0.00;;;19.30;99.90;;;;;;5033854;28;20041;-76
2023/09/28 01:18:10;;;;;;;0.00;0.00;;;19.40;99.90;;;;;;5033176;28;20458;-76
2023/09/28 01:20:37;;;;;;;0.10;0.10;;;19.70;99.90;;;;;;5033359;28;20040;-76
2023/09/28 01:23:07;;;;;;;0.88;0.65;;;19.80;99.90;;;;;;5015700;28;20079;-76
2023/09/28 01:25:33;;;;;;;0.00;0.00;;;19.70;99.90;;;;;;5032174;28;20386;-77
2023/09/28 01:28:00;;;;;;;1.38;1.00;;;19.50;99.90;;;;;;5031813;28;20466;-75
2023/09/28 01:30:27;;;;;;;0.00;0.00;;;19.30;99.90;;;;;;5015636;28;20017;-76
2023/09/28 01:32:53;;;;;;;0.00;0.00;;;19.40;99.90;;;;;;5031820;28;20478;-74
2023/09/28 01:35:20;;;;;;;0.00;0.00;;;19.40;99.90;;;;;;5015648;28;20421;-75
2023/09/28 01:38:20;;;;;;;0.00;0.00;;;19.40;99.90;;;;;;5033205;28;20501;-76
2023/09/28 01:40:47;;;;;;;0.00;0.00;;;19.30;99.90;;;;;;5033042;28;20156;-77
2023/09/28 01:43:16;;;;;;;0.00;0.00;;;19.30;99.90;;;;;;5031744;28;20152;-75
2023/09/28 01:45:42;;;;;;;0.00;0.00;;;19.10;99.90;;;;;;5033006;28;20036;-76
2023/09/28 01:48:08;;;;;;;0.00;0.00;;;19.10;99.90;;;;;;5031637;28;20037;-75
2023/09/28 01:50:34;;;;;;;0.00;0.00;;;19.30;99.90;;;;;;5031767;28;20032;-76
2023/09/28 01:53:00;;;;;;;0.00;0.00;;;19.40;99.90;;;;;;5015299;28;20561;-75
2023/09/28 01:55:26;;;;;;;0.00;0.00;;;19.40;99.90;;;;;;5033097;28;20073;-75
2023/09/28 01:57:52;;;;;;;0.13;0.13;;;19.60;99.90;;;;;;5032545;28;20030;-76
2023/09/28 02:00:20;;;;;;;1.20;0.47;;;19.60;99.90;;;;;;5031409;28;20033;-74
2023/09/28 02:02:47;;;;;;;1.23;0.75;;;19.30;99.90;;;;;;5031331;28;20036;-75
2023/09/28 02:05:18;;;;;;;0.00;0.00;;;19.10;99.90;;;;;;5032869;28;20021;-76
2023/09/28 02:07:45;;;;;;;0.00;0.00;;;19.20;99.90;;;;;;5031467;28;20029;-75
2023/09/28 02:10:11;;;;;;;0.00;0.00;;;19.40;99.90;;;;;;5032581;28;20549;-76
2023/09/28 02:12:40;;;;;;;0.13;0.10;;;19.40;99.90;;;;;;5032574;28;20397;-77
2023/09/28 02:15:09;;;;;;;0.00;0.00;;;19.20;99.90;;;;;;5032675;28;20501;-76
2023/09/28 02:17:36;;;;;;;0.00;0.00;;;19.10;99.90;;;;;;5031220;28;20390;-76
2023/09/28 02:20:08;;;;;;;0.75;0.75;;;19.20;99.90;;;;;;5031612;28;20030;-76
2023/09/28 02:22:43;;;;;;;0.20;0.20;;;19.20;99.90;;;;;;5032547;28;20485;-77
2023/09/28 02:25:14;;;;;;;0.63;0.63;;;19.20;99.90;;;;;;5032792;28;20478;-76
2023/09/28 02:27:42;;;;;;;0.20;0.17;;;19.20;99.90;;;;;;5031289;28;20033;-76
2023/09/28 02:30:11;;;;;;;0.20;0.20;;;19.20;99.90;;;;;;5030910;28;20091;-76
2023/09/28 02:32:39;;;;;;;0.00;0.00;;;19.20;99.90;;;;;;5015026;28;20029;-76
2023/09/28 02:35:07;;;;;;;0.00;0.00;;;19.20;99.90;;;;;;5032298;28;20429;-77
2023/09/28 02:37:36;;;;;;;0.03;0.03;;;19.50;99.90;;;;;;5032363;28;20025;-76
2023/09/28 02:40:05;;;;;;;3.08;0.75;;;19.40;99.90;;;;;;5031059;28;20386;-76
2023/09/28 02:42:33;;;;;;;0.00;0.00;;;19.40;99.90;;;;;;5032340;28;20406;-77
2023/09/28 02:45:00;;;;;;;0.00;0.00;;;19.60;99.90;;;;;;5032018;28;20040;-77
2023/09/28 02:47:27;;;;;;;0.10;0.10;;;19.40;99.90;;;;;;5031205;28;20485;-76
2023/09/28 02:49:54;;;;;;;0.30;0.30;;;19.30;99.90;;;;;;5031241;28;20444;-76
2023/09/28 02:52:20;;;;;;;0.10;0.10;;;19.40;99.90;;;;;;5032341;28;20017;-76
2023/09/28 02:54:46;;;;;;;0.00;0.00;;;19.50;99.90;;;;;;5032381;28;20097;-77
2023/09/28 02:57:13;;;;;;;1.10;0.73;;;19.70;99.90;;;;;;5030779;28;20068;-75
2023/09/28 02:59:39;;;;;;;0.17;0.17;;;19.50;99.90;;;;;;5030810;28;20033;-78
2023/09/28 03:02:05;;;;;;;2.25;0.63;;;19.30;99.90;;;;;;5031084;28;20021;-76
2023/09/28 03:04:31;;;;;;;0.20;0.20;;;19.20;99.90;;;;;;5031947;28;20482;-76
2023/09/28 03:06:58;;;;;;;0.38;0.38;;;19.20;99.90;;;;;;5032535;28;20021;-74
2023/09/28 03:09:26;;;;;;;1.88;0.88;;;19.20;99.90;;;;;;5032100;28;20037;-76
2023/09/28 03:11:53;;;;;;;0.57;0.57;;;19.20;99.90;;;;;;5032091;28;20104;-75
2023/09/28 03:14:21;;;;;;;6.10;1.00;;;19.30;99.90;;;;;;5031821;28;20113;-75
2023/09/28 03:16:48;;;;;;;0.60;0.22;;;19.30;99.90;;;;;;5032268;28;20065;-76
2023/09/28 03:19:14;;;;;;;0.43;0.32;;;19.30;99.90;;;;;;5022193;28;20054;-74
2023/09/28 03:21:41;;;;;;;14.98;1.08;;;19.20;99.90;;;;;;5032012;28;20029;-76
2023/09/28 03:24:08;;;;;;;1.17;0.55;;;19.10;99.90;;;;;;5035754;28;20041;-76
2023/09/28 03:26:34;;;;;;;0.00;0.00;;;19.10;99.90;;;;;;5034357;28;20677;-75
2023/09/28 03:29:00;;;;;;;1.55;1.35;;;19.20;99.90;;;;;;5035476;28;20423;-74
2023/09/28 03:31:27;;;;;;;0.00;0.00;;;19.20;99.90;;;;;;5034172;28;20029;-74
2023/09/28 03:33:56;;;;;;;0.30;0.10;;;18.90;99.90;;;;;;5034534;28;20030;-75
2023/09/28 03:36:22;;;;;;;0.00;0.00;;;19.00;99.90;;;;;;5035169;28;20017;-75
2023/09/28 03:38:48;;;;;;;0.00;0.00;;;18.90;99.90;;;;;;5035482;28;20029;-77
2023/09/28 03:41:15;;;;;;;0.00;0.00;;;19.00;99.90;;;;;;5035421;28;20048;-74
2023/09/28 03:43:44;;;;;;;1.02;0.57;;;18.80;99.90;;;;;;5034971;28;20029;-76
2023/09/28 03:46:11;;;;;;;0.05;0.05;;;18.80;99.90;;;;;;5035343;28;20037;-76
2023/09/28 03:48:37;;;;;;;0.00;0.00;;;18.60;99.90;;;;;;5035226;28;20036;-76
2023/09/28 03:51:03;;;;;;;0.13;0.13;;;18.60;99.90;;;;;;5034078;28;20461;-75
2023/09/28 03:53:32;;;;;;;3.15;1.17;;;18.40;99.90;;;;;;5035152;28;20026;-76
2023/09/28 03:55:58;;;;;;;3.03;1.27;;;18.30;99.90;;;;;;5018120;28;20026;-75
2023/09/28 03:58:23;;;;;;;0.00;0.00;;;18.40;99.90;;;;;;5002899;28;20462;-75
2023/09/28 04:00:50;;;;;;;0.00;0.00;;;18.70;99.90;;;;;;5013824;28;20034;-75
2023/09/28 04:03:16;;;;;;;0.52;0.28;;;18.50;99.90;;;;;;5015282;28;20037;-77
2023/09/28 04:05:41;;;;;;;0.77;0.73;;;18.50;99.90;;;;;;5015056;28;20076;-77
2023/09/28 04:08:07;;;;;;;0.20;0.20;;;18.50;99.90;;;;;;5014759;28;20532;-76
2023/09/28 04:10:33;;;;;;;0.00;0.00;;;18.40;99.90;;;;;;5014924;28;20025;-76
2023/09/28 04:13:01;;;;;;;0.75;0.75;;;18.40;99.90;;;;;;5014595;28;20022;-77
2023/09/28 04:15:27;;;;;;;0.80;0.65;;;18.20;99.90;;;;;;5014883;28;20034;-76
2023/09/28 04:17:53;;;;;;;0.93;0.30;;;18.10;99.90;;;;;;5014255;28;20026;-76
2023/09/28 04:20:18;;;;;;;0.50;0.50;;;17.70;99.90;;;;;;5014686;28;20037;-76
2023/09/28 04:22:45;;;;;;;0.15;0.15;;;17.60;99.90;;;;;;5013274;28;20037;-75
2023/09/28 04:25:11;;;;;;;0.13;0.13;;;17.60;99.90;;;;;;5014649;28;20025;-76
2023/09/28 04:27:37;;;;;;;0.43;0.10;;;17.70;99.90;;;;;;5014409;28;20033;-77
2023/09/28 04:30:03;;;;;;;0.00;0.00;;;17.90;99.90;;;;;;5014589;28;20034;-77
2023/09/28 04:32:31;;;;;;;0.00;0.00;;;17.80;99.90;;;;;;5014127;28;20040;-76
2023/09/28 04:34:57;;;;;;;21.42;2.83;;;17.60;99.90;;;;;;5014192;28;20065;-76
2023/09/28 04:37:25;;;;;;;0.32;0.32;;;17.70;99.90;;;;;;5013836;28;20014;-76
2023/09/28 04:39:53;;;;;;;0.00;0.00;;;17.60;99.90;;;;;;5013947;28;20040;-75
2023/09/28 04:42:22;;;;;;;1.17;0.93;;;17.60;99.90;;;;;;5013885;28;20014;-76
2023/09/28 04:44:49;;;;;;;0.00;0.00;;;17.50;99.90;;;;;;5014088;28;20022;-76
2023/09/28 04:47:15;;;;;;;10.85;2.85;;;17.50;99.90;;;;;;5013663;28;20026;-76
2023/09/28 04:49:41;;;;;;;7.65;3.50;;;17.50;99.90;;;;;;5014063;28;20033;-76
2023/09/28 04:52:10;;;;;;;0.00;0.00;;;17.30;99.90;;;;;;5013978;28;20034;-76
2023/09/28 04:54:36;;;;;;;0.40;0.40;;;17.40;99.90;;;;;;5019856;28;20035;-75
2023/09/28 04:57:02;;;;;;;0.32;0.32;;;17.40;99.90;;;;;;5030325;28;20367;-75
2023/09/28 04:59:27;;;;;;;0.00;0.00;;;17.40;99.90;;;;;;5033530;28;20076;-76
2023/09/28 05:01:53;;;;;;;0.38;0.38;;;17.40;99.90;;;;;;5025363;28;20052;-76
2023/09/28 05:04:19;;;;;;;10.98;2.80;;;17.40;99.90;;;;;;5009849;28;20034;-76
2023/09/28 05:06:46;;;;;;;0.10;0.10;;;17.50;99.90;;;;;;5012190;28;20479;-76
2023/09/28 05:09:13;;;;;;;0.10;0.10;;;17.70;99.90;;;;;;5013212;28;20425;-75
2023/09/28 05:11:39;;;;;;;0.00;0.00;;;17.30;99.90;;;;;;5013572;28;20046;-76
2023/09/28 05:14:05;;;;;;;0.80;0.68;;;17.10;99.90;;;;;;5013533;28;20478;-76
2023/09/28 05:16:31;;;;;;;5.50;1.45;;;17.10;99.90;;;;;;5013240;28;20545;-76
2023/09/28 05:18:57;;;;;;;0.00;0.00;;;17.00;99.90;;;;;;5013569;28;20106;-74
2023/09/28 05:21:23;;;;;;;0.05;0.05;;;17.00;99.90;;;;;;5013727;28;20068;-75
2023/09/28 05:23:50;;;;;;;4.88;1.17;;;17.00;99.90;;;;;;5011963;28;20034;-77
2023/09/28 05:26:16;;;;;;;9.27;1.98;;;16.90;99.90;;;;;;5010392;28;20026;-77
2023/09/28 05:28:42;;;;;;;3.75;1.65;;;16.90;99.90;;;;;;5011153;28;20487;-77
2023/09/28 05:31:08;;;;;;;0.20;0.20;;;16.80;99.90;;;;;;5012453;28;20029;-76
2023/09/28 05:33:34;;;;;;;0.80;0.80;;;16.90;99.90;;;;;;5012848;28;20026;-76
2023/09/28 05:36:00;;;;;;;1.10;0.77;;;16.80;99.90;;;;;;5012285;28;20110;-76
2023/09/28 05:38:25;;;;;;;1.63;0.20;;;16.80;99.90;;;;;;5010325;28;20116;-77
2023/09/28 05:40:51;;;;;;;0.43;0.43;;;16.90;99.90;;;;;;5012463;28;20477;-76
2023/09/28 05:43:17;;;;;;;0.43;0.43;;;16.80;99.90;;;;;;5024861;28;20034;-76
2023/09/28 05:45:43;;;;;;;0.10;0.10;;;16.90;99.90;;;;;;5011959;28;20033;-76
2023/09/28 05:48:08;;;;;;;8.48;0.98;;;16.70;99.90;;;;;;5012282;28;20025;-76
2023/09/28 05:50:34;;;;;;;0.52;0.17;;;16.80;99.90;;;;;;5012647;28;20105;-76
2023/09/28 05:53:00;;;;;;;16.15;3.67;;;16.80;99.90;;;;;;5011754;28;20021;-76
2023/09/28 05:55:26;;;;;;;0.82;0.82;;;16.80;99.90;;;;;;5020270;28;20385;-77
2023/09/28 05:57:55;;;;;;;0.80;0.43;;;16.70;99.90;;;;;;5027559;28;20113;-76
2023/09/28 06:00:21;;;;;;;0.10;0.10;;;16.50;99.90;;;;;;5031008;28;20033;-77
2023/09/28 06:02:46;;;;;;;0.00;0.00;;;16.60;99.90;;;;;;5019273;28;20462;-76
2023/09/28 06:05:13;;;;;;;13.27;1.45;;;16.70;99.90;;;;;;5017936;28;20050;-76
2023/09/28 06:07:39;;;;;;;0.55;0.52;;;16.90;99.90;;;;;;5022451;28;20018;-76
2023/09/28 06:10:08;;;;;;;0.20;0.20;;;16.80;99.90;;;;;;5028915;28;20041;-77
2023/09/28 06:12:34;;;;;;;0.00;0.00;;;16.70;99.90;;;;;;5031510;28;20030;-76
2023/09/28 06:15:01;;;;;;;0.10;0.10;;;16.70;99.90;;;;;;5018039;28;20100;-77
2023/09/28 06:17:27;;;;;;;9.38;1.00;;;16.70;99.90;;;;;;5008143;28;20034;-76
2023/09/28 06:19:53;;;;;;;0.63;0.63;;;16.70;99.90;;;;;;5011156;28;20032;-76
2023/09/28 06:22:19;;;;;;;0.10;0.10;;;16.70;99.90;;;;;;5011240;28;20038;-74
2023/09/28 06:24:44;;;;;;;3.75;1.20;;;16.90;99.90;;;;;;5011814;28;20029;-74
2023/09/28 06:27:10;;;;;;;0.28;0.28;;;17.10;99.90;;;;;;5026977;28;20475;-75
2023/09/28 06:29:36;;;;;;;0.30;0.30;;;17.10;99.90;;;;;;5011751;28;20519;-75
2023/09/28 06:32:03;;;;;;;0.17;0.17;;;17.00;99.90;;;;;;5012036;28;20101;-75
2023/09/28 06:34:29;;;;;;;7.78;1.70;;;16.90;99.90;;;;;;5012109;28;20033;-75
2023/09/28 06:36:54;;;;;;;0.10;0.10;;;16.80;99.90;;;;;;5011524;28;20026;-76
2023/09/28 06:39:20;;;;;;;14.82;1.80;;;16.80;99.90;;;;;;5012155;28;20018;-75
2023/09/28 06:41:46;;;;;;;0.47;0.47;;;16.80;99.90;;;;;;5012058;28;20034;-76
2023/09/28 06:44:19;;;;;;;0.52;0.30;;;16.90;99.90;;;;;;5010681;28;20479;-79
2023/09/28 06:46:46;;;;;;;3.40;0.82;;;17.00;99.90;;;;;;5011422;28;20025;-74
2023/09/28 06:49:12;;;;;;;14.07;3.10;;;16.90;99.90;;;;;;5001657;28;20497;-76
2023/09/28 06:51:38;;;;;;;0.03;0.03;;;16.90;99.90;;;;;;5011476;28;20117;-76
2023/09/28 06:54:04;;;;;;;0.75;0.55;;;17.10;99.90;;;;;;5013500;28;20144;-76
2023/09/28 06:56:30;;;;;;;0.00;0.00;;;17.30;99.90;;;;;;5034050;28;20466;-75
2023/09/28 06:58:57;;;;;;;1.80;1.20;;;17.40;99.90;;;;;;5031219;28;20083;-75
2023/09/28 07:01:23;;;;;;;0.77;0.22;;;17.50;99.90;;;;;;5025824;28;20029;-74
2023/09/28 07:03:52;;;;;;;0.28;0.20;;;17.50;99.90;;;;;;5015551;28;20041;-77
2023/09/28 07:06:21;;;;;;;7.57;2.05;;;17.50;99.90;;;;;;5015708;28;20036;-77
2023/09/28 07:08:47;;;;;;;6.60;0.93;;;17.20;99.90;;;;;;5016015;28;20050;-77
2023/09/28 07:11:13;;;;;;;0.00;0.00;;;17.20;99.90;;;;;;5014853;28;20422;-76
2023/09/28 07:13:39;;;;;;;0.00;0.00;;;17.30;99.90;;;;;;5016192;28;20030;-77
2023/09/28 07:16:07;;;;;;;0.45;0.45;;;17.60;99.90;;;;;;5015818;28;20097;-77
2023/09/28 07:18:34;;;;;;;1.77;1.65;;;17.80;99.90;;;;;;5015954;28;20529;-77
2023/09/28 07:21:00;;;;;;;7.10;1.65;;;17.80;99.90;;;;;;5015460;28;20024;-78
2023/09/28 07:23:26;;;;;;;4.25;0.28;;;17.90;99.90;;;;;;5015998;28;20085;-77
2023/09/28 07:25:51;;;;;;;10.80;2.00;;;18.00;99.90;;;;;;5014381;28;20092;-78
2023/09/28 07:28:17;;;;;;;0.00;0.00;;;17.90;99.90;;;;;;5015449;28;20121;-77
2023/09/28 07:30:43;;;;;;;0.13;0.13;;;17.80;99.90;;;;;;5015722;28;20069;-78
2023/09/28 07:33:13;;;;;;;3.67;0.93;;;18.00;99.90;;;;;;5015422;28;20394;-78
2023/09/28 07:35:39;;;;;;;6.32;1.08;;;17.60;99.90;;;;;;5015403;28;20482;-78
2023/09/28 07:38:05;;;;;;;4.75;1.75;;;17.70;99.90;;;;;;5015473;28;20026;-77
2023/09/28 07:40:30;;;;;;;37.88;3.50;;;17.80;99.90;;;;;;5015523;28;20593;-77
2023/09/28 07:42:56;;;;;;;0.00;0.00;;;17.60;99.90;;;;;;5015312;28;20026;-77
2023/09/28 07:45:22;;;;;;;2.33;0.85;;;17.80;99.90;;;;;;5015325;28;20026;-78
2023/09/28 07:47:48;;;;;;;7.35;1.58;;;17.90;99.90;;;;;;5015455;28;20037;-77
2023/09/28 07:50:14;;;;;;;4.00;0.90;;;18.10;99.90;;;;;;5014947;28;20022;-77
2023/09/28 07:52:42;;;;;;;6.50;0.30;;;17.90;99.90;;;;;;5015507;28;20030;-78
2023/09/28 07:55:08;;;;;;;0.10;0.10;;;18.10;99.90;;;;;;5024595;28;20474;-78
2023/09/28 07:57:34;;;;;;;0.20;0.20;;;18.10;99.90;;;;;;5035143;28;20041;-77
2023/09/28 07:59:59;;;;;;;0.10;0.10;;;18.20;99.90;;;;;;5034939;28;20105;-77
2023/09/28 08:02:25;;;;;;;3.42;1.25;;;18.30;99.90;;;;;;5034609;28;20049;-77
2023/09/28 08:04:53;;;;;;;0.00;0.00;;;18.00;99.90;;;;;;5034789;28;20045;-77
2023/09/28 08:07:19;;;;;;;4.85;1.50;;;18.20;99.90;;;;;;5032995;28;20021;-78
2023/09/28 08:09:47;;;;;;;7.57;1.75;;;18.40;99.90;;;;;;5034801;28;20132;-78
2023/09/28 08:12:13;;;;;;;2.95;1.13;;;18.10;99.90;;;;;;5033509;28;20379;-78
2023/09/28 08:14:39;;;;;;;4.82;1.92;;;18.10;99.90;;;;;;5033718;28;20021;-78
2023/09/28 08:17:06;;;;;;;2.35;0.70;;;18.00;99.90;;;;;;5034637;28;20088;-77
2023/09/28 08:19:31;;;;;;;0.55;0.55;;;18.00;99.90;;;;;;5034447;28;20028;-78
2023/09/28 08:21:57;;;;;;;0.00;0.00;;;18.10;99.90;;;;;;5034663;28;20456;-77
2023/09/28 08:24:23;;;;;;;0.25;0.20;;;18.30;99.90;;;;;;5033362;28;20053;-78
2023/09/28 08:26:49;;;;;;;0.45;0.45;;;18.70;99.90;;;;;;5027645;28;20029;-78
2023/09/28 08:29:15;;;;;;;9.80;1.98;;;18.70;99.90;;;;;;5025048;28;20045;-77
2023/09/28 08:31:41;;;;;;;1.35;0.80;;;18.70;99.90;;;;;;5034412;28;20025;-77
2023/09/28 08:34:08;;;;;;;5.50;1.17;;;18.80;99.90;;;;;;5034282;28;20033;-77
2023/09/28 08:36:34;;;;;;;0.95;0.45;;;19.00;99.90;;;;;;5018794;28;20030;-78
2023/09/28 08:39:00;;;;;;;0.70;0.40;;;19.00;99.90;;;;;;5034155;28;20259;-78
2023/09/28 08:41:55;;;;;;;4.05;1.27;;;18.90;99.90;;;;;;5034121;28;20033;-77
2023/09/28 08:44:25;;;;;;;18.40;3.72;;;18.80;99.90;;;;;;5034257;28;20037;-77
2023/09/28 08:46:58;;;;;;;2.50;0.83;;;19.00;99.90;;;;;;5033625;28;20052;-78
2023/09/28 08:49:27;;;;;;;10.85;1.52;;;19.30;99.90;;;;;;5034042;28;20028;-78
2023/09/28 08:51:57;;;;;;;9.45;1.13;;;19.50;99.90;;;;;;5033934;28;20026;-78
2023/09/28 08:54:23;;;;;;;12.95;2.17;;;19.40;99.90;;;;;;5033976;28;20026;-78
2023/09/28 08:56:51;;;;;;;0.00;0.00;;;19.40;99.90;;;;;;5033927;28;20402;-78
2023/09/28 08:59:17;;;;;;;2.45;0.82;;;19.40;99.90;;;;;;5034339;28;20108;-78
2023/09/28 09:01:43;;;;;;;2.03;0.90;;;19.40;99.90;;;;;;5033390;28;20116;-77
2023/09/28 09:04:09;;;;;;;0.73;0.63;;;19.90;99.90;;;;;;5033781;28;20048;-77
2023/09/28 09:06:35;;;;;;;0.38;0.38;;;19.60;99.90;;;;;;5033911;28;20017;-77
2023/09/28 09:09:06;;;;;;;1.48;0.22;;;19.70;99.90;;;;;;5032536;28;20033;-78
2023/09/28 09:11:37;;;;;;;3.63;0.47;;;20.10;99.90;;;;;;5033770;28;20447;-78
2023/09/28 09:14:02;;;;;;;11.98;0.63;;;19.60;99.90;;;;;;5033582;28;20482;-77
2023/09/28 09:16:30;;;;;;;2.65;2.28;;;19.50;99.90;;;;;;5031985;28;20067;-77
2023/09/28 09:18:56;;;;;;;0.90;0.50;;;19.60;99.90;;;;;;5033049;28;20031;-77
2023/09/28 09:21:23;;;;;;;19.38;1.95;;;19.60;99.90;;;;;;5033435;28;20409;-78
2023/09/28 09:24:11;;;;;;;5.22;0.90;;;19.60;99.90;;;;;;5033173;28;20048;-77
2023/09/28 09:26:41;;;;;;;6.25;1.63;;;19.60;99.90;;;;;;5033470;28;20486;-77
2023/09/28 09:29:08;;;;;;;3.95;1.40;;;19.30;99.90;;;;;;5026173;28;20045;-77
2023/09/28 09:31:38;;;;;;;3.80;0.75;;;19.40;99.90;;;;;;5030038;28;20029;-77
2023/09/28 09:34:11;;;;;;;4.43;1.73;;;19.50;99.90;;;;;;5033165;28;20025;-77
2023/09/28 09:36:38;;;;;;;0.00;0.00;;;19.30;99.90;;;;;;5031980;28;20030;-77
2023/09/28 09:39:04;;;;;;;0.25;0.25;;;19.50;99.90;;;;;;5033191;28;20032;-77
2023/09/28 09:41:29;;;;;;;0.13;0.13;;;19.60;99.90;;;;;;5031779;28;20030;-77
2023/09/28 09:43:58;;;;;;;4.03;0.98;;;19.90;99.90;;;;;;5033032;28;20041;-77
2023/09/28 09:46:25;;;;;;;6.03;1.25;;;19.70;99.90;;;;;;5032849;28;20038;-77
2023/09/28 09:48:52;;;;;;;0.00;0.00;;;19.50;99.90;;;;;;5033017;28;20079;-77
2023/09/28 09:51:18;;;;;;;14.05;2.17;;;19.70;99.90;;;;;;5033282;28;20021;-78
2023/09/28 09:53:45;;;;;;;2.20;0.65;;;19.50;99.90;;;;;;5031639;28;20442;-77
2023/09/28 09:56:13;;;;;;;0.00;0.00;;;19.30;99.90;;;;;;5032733;28;20038;-77
2023/09/28 09:58:48;;;;;;;0.45;0.45;;;19.60;99.90;;;;;;5031654;28;20541;-77
2023/09/28 10:01:18;;;;;;;0.57;0.10;;;19.80;99.90;;;;;;5031561;28;20036;-77
2023/09/28 10:03:51;;;;;;;9.65;1.67;;;19.60;99.90;;;;;;5032712;28;20045;-78
2023/09/28 10:06:20;;;;;;;0.00;0.00;;;19.80;99.90;;;;;;5031605;28;20425;-77
2023/09/28 10:08:49;;;;;;;9.00;1.65;;;20.00;99.90;;;;;;5032913;28;20033;-77
2023/09/28 10:11:17;;;;;;;0.63;0.55;;;20.10;99.90;;;;;;5032669;28;20036;-77
2023/09/28 10:13:43;;;;;;;1.05;0.70;;;20.20;99.90;;;;;;5032453;28;20393;-78
2023/09/28 10:16:14;;;;;;;0.00;0.00;;;20.30;99.90;;;;;;5032476;28;20382;-77
2023/09/28 10:18:43;;;;;;;1.05;0.35;;;20.10;99.90;;;;;;5033157;28;20033;-78
2023/09/28 10:21:11;;;;;;;0.30;0.30;;;20.30;99.90;;;;;;5031284;28;20054;-77
2023/09/28 10:23:37;;;;;;;0.15;0.13;;;20.70;99.90;;;;;;5032690;28;20041;-77
2023/09/28 10:26:11;;;;;;;3.63;0.88;;;20.40;99.90;;;;;;5032665;28;20531;-77
2023/09/28 10:29:06;;;;;;;6.45;1.25;;;20.30;99.90;;;;;;5032293;28;20440;-78
2023/09/28 10:31:42;;;;;;;6.82;0.90;;;20.60;99.90;;;;;;5024838;28;20477;-77
2023/09/28 10:34:16;;;;;;;0.30;0.20;;;20.50;99.90;;;;;;5006604;28;20018;-78
2023/09/28 10:36:42;;;;;;;1.35;0.70;;;20.90;99.90;;;;;;5015364;28;20058;-77
2023/09/28 10:39:15;;;;;;;0.80;0.22;;;20.70;99.90;;;;;;5016730;28;20057;-78
2023/09/28 10:41:49;;;;;;;8.10;1.20;;;20.30;99.90;;;;;;5016762;28;20112;-78
2023/09/28 10:44:16;;;;;;;2.22;0.88;;;20.10;99.90;;;;;;5014987;28;20072;-78
2023/09/28 10:46:44;;;;;;;13.18;1.33;;;20.00;99.90;;;;;;5015309;28;20050;-78
2023/09/28 10:49:14;;;;;;;0.52;0.52;;;20.10;99.90;;;;;;5016386;28;20029;-77
2023/09/28 10:51:40;;;;;;;4.03;1.75;;;19.90;99.90;;;;;;5016707;28;20030;-77
2023/09/28 10:54:08;;;;;;;0.00;0.00;;;19.80;99.90;;;;;;5017506;28;20463;-78
2023/09/28 10:56:34;;;;;;;1.45;1.35;;;20.10;99.90;;;;;;5036255;28;20049;-77
2023/09/28 10:59:02;;;;;;;11.90;0.28;;;20.40;99.90;;;;;;5035905;28;20057;-77
2023/09/28 11:01:28;;;;;;;0.00;0.00;;;20.40;99.90;;;;;;5036244;28;20021;-78
2023/09/28 11:03:54;;;;;;;4.03;1.20;;;20.80;99.90;;;;;;5036042;28;20505;-77
2023/09/28 11:06:22;;;;;;;0.15;0.08;;;21.30;99.90;;;;;;5036082;28;20466;-78
2023/09/28 11:08:49;;;;;;;1.15;0.55;;;21.40;99.90;;;;;;5036092;28;20022;-78
2023/09/28 11:11:17;;;;;;;3.53;0.68;;;21.30;99.90;;;;;;5034450;28;20100;-77
2023/09/28 11:13:44;;;;;;;22.23;3.47;;;21.60;99.90;;;;;;5036107;28;20481;-78
2023/09/28 11:16:11;;;;;;;2.67;1.08;;;22.00;99.90;;;;;;5035807;28;20025;-78
2023/09/28 11:18:37;;;;;;;3.85;0.93;;;22.60;99.90;;;;;;5035958;28;20022;-78
2023/09/28 11:21:04;;;;;;;0.08;0.08;;;22.10;99.90;;;;;;5035564;28;20470;-78
2023/09/28 11:23:30;;;;;;;4.90;2.35;;;21.90;99.90;;;;;;5035749;28;20065;-79
2023/09/28 11:25:58;;;;;;;0.32;0.32;;;21.50;99.90;;;;;;5035320;28;20025;-78
2023/09/28 11:28:23;;;;;;;1.65;0.50;;;22.10;99.90;;;;;;5034140;28;20037;-79
2023/09/28 11:31:08;;;;;;;6.07;2.20;;;22.40;99.90;;;;;;5035334;28;20075;-85
2023/09/28 11:33:35;;;;;;;0.00;0.00;;;21.90;99.90;;;;;;5032623;28;20037;-85
2023/09/28 11:36:02;;;;;;;0.08;0.08;;;21.90;99.90;;;;;;5018850;28;20022;-82
2023/09/28 11:38:28;;;;;;;0.55;0.32;;;22.10;99.90;;;;;;5012616;28;20072;-85
2023/09/28 11:40:55;;;;;;;4.18;1.10;;;22.20;99.90;;;;;;5012904;28;20054;-84
2023/09/28 11:43:21;;;;;;;0.55;0.55;;;22.00;99.90;;;;;;5013521;28;20034;-83
2023/09/28 11:45:48;;;;;;;0.10;0.10;;;22.20;99.90;;;;;;5013435;28;20048;-85
2023/09/28 11:48:21;;;;;;;0.82;0.77;;;22.20;99.90;;;;;;5014397;28;20038;-82
2023/09/28 11:50:47;;;;;;;2.58;1.75;;;22.40;99.90;;;;;;5014970;28;21210;-85
2023/09/28 11:53:14;;;;;;;0.75;0.75;;;22.60;99.90;;;;;;5013713;28;20030;-83
2023/09/28 11:55:41;;;;;;;0.00;0.00;;;22.70;99.90;;;;;;5024746;28;20033;-86
2023/09/28 11:58:10;;;;;;;0.00;0.00;;;23.80;99.90;;;;;;5032906;28;20124;-82
2023/09/28 12:00:37;;;;;;;0.00;0.00;;;24.90;99.70;;;;;;5029616;28;20034;-81
2023/09/28 12:03:04;;;;;;;0.00;0.00;;;24.10;99.90;;;;;;5039283;28;20045;-86
2023/09/28 12:05:31;;;;;;;0.40;0.30;;;24.80;99.10;;;;;;5023838;28;20034;-85
2023/09/28 12:07:58;;;;;;;0.73;0.28;;;24.30;99.20;;;;;;5024784;28;20382;-86
2023/09/28 12:10:24;;;;;;;2.53;1.25;;;23.50;99.90;;;;;;5024373;28;20056;-82
2023/09/28 12:12:50;;;;;;;9.32;0.68;;;23.30;99.90;;;;;;5021357;28;20067;-84
2023/09/28 12:15:16;;;;;;;0.20;0.20;;;24.20;99.40;;;;;;5021260;28;20028;-83
2023/09/28 12:17:42;;;;;;;7.07;1.50;;;23.90;99.90;;;;;;5023108;28;20530;-83
2023/09/28 12:20:12;;;;;;;3.50;1.27;;;24.20;99.20;;;;;;5031015;28;20108;-86
2023/09/28 12:22:39;;;;;;;0.55;0.28;;;24.20;99.40;;;;;;5033394;28;20396;-84
2023/09/28 12:25:06;;;;;;;0.00;0.00;;;23.70;99.80;;;;;;5019925;28;20044;-85
2023/09/28 12:27:32;;;;;;;0.08;0.08;;;23.60;99.90;;;;;;5020545;28;20041;-82
2023/09/28 12:29:59;;;;;;;0.15;0.15;;;23.60;99.90;;;;;;5026715;28;20390;-84
2023/09/28 12:32:28;;;;;;;1.10;0.40;;;23.00;99.90;;;;;;5031269;28;20029;-85
2023/09/28 12:34:58;;;;;;;0.00;0.00;;;22.70;99.90;;;;;;5020120;28;20026;-83
2023/09/28 12:37:23;;;;;;;0.05;0.05;;;22.50;99.90;;;;;;5008155;28;20109;-83
2023/09/28 12:39:53;;;;;;;8.25;1.30;;;22.80;99.90;;;;;;5021665;28;20104;-86
2023/09/28 12:42:24;;;;;;;0.10;0.10;;;22.80;99.90;;;;;;5029604;28;20014;-85
2023/09/28 12:44:51;;;;;;;0.00;0.00;;;22.90;99.90;;;;;;5032312;28;20490;-80
2023/09/28 12:47:19;;;;;;;0.00;0.00;;;23.50;99.90;;;;;;5017841;28;20028;-81